Time;durP1;ratioP1;P1;durP2;ratioP2;P2;SDS_P1;SDS_P2;PMS_P1;PMS_P2;Temp;Humidity;BMP_temperature;BMP_pressure;BME280_temperature;BME280_humidity;BME280_pressure;Samples;Min_cycle;Max_cycle;Signal;HPM_P1;HPM_P2
2022/12/03 00:00:12;;;;;;;21.55;16.80;;;3.30;99.90;;;;;;5995013;23;20191;-68
2022/12/03 00:02:40;;;;;;;17.83;15.90;;;3.20;99.90;;;;;;6004535;23;20196;-68
2022/12/03 00:05:09;;;;;;;20.27;15.88;;;3.20;99.90;;;;;;5991430;23;20191;-68
2022/12/03 00:07:36;;;;;;;19.17;17.17;;;3.30;99.90;;;;;;6004411;23;20188;-69
2022/12/03 00:10:05;;;;;;;19.17;15.85;;;3.30;99.90;;;;;;5970459;23;20493;-68
2022/12/03 00:12:32;;;;;;;20.50;16.20;;;3.30;99.90;;;;;;6004990;23;20208;-68
2022/12/03 00:14:59;;;;;;;20.38;16.83;;;3.50;99.90;;;;;;5992269;23;20216;-69
2022/12/03 00:17:26;;;;;;;17.08;15.27;;;3.40;99.90;;;;;;6003047;23;20201;-68
2022/12/03 00:19:54;;;;;;;20.35;16.70;;;3.40;99.90;;;;;;6000433;23;20198;-68
2022/12/03 00:22:23;;;;;;;16.98;14.68;;;3.40;99.90;;;;;;6004641;23;20287;-68
2022/12/03 00:24:50;;;;;;;19.20;15.05;;;3.50;99.90;;;;;;5986186;23;20674;-68
2022/12/03 00:27:17;;;;;;;16.77;14.98;;;3.50;99.90;;;;;;5977045;24;20645;-68
2022/12/03 00:29:45;;;;;;;17.60;15.45;;;3.50;99.90;;;;;;5992214;23;20244;-68
2022/12/03 00:32:13;;;;;;;15.88;14.07;;;3.60;99.90;;;;;;6003528;23;20563;-68
2022/12/03 00:34:41;;;;;;;13.88;12.23;;;3.60;99.90;;;;;;5999592;23;21253;-68
2022/12/03 00:37:08;;;;;;;14.73;13.23;;;3.60;99.90;;;;;;6002800;23;20201;-69
2022/12/03 00:39:36;;;;;;;17.73;14.05;;;3.70;99.90;;;;;;5992506;23;20197;-68
2022/12/03 00:42:04;;;;;;;14.88;12.20;;;3.70;99.90;;;;;;6001689;23;20193;-68
2022/12/03 00:44:31;;;;;;;15.05;13.27;;;3.70;99.90;;;;;;5990163;23;20194;-68
2022/12/03 00:46:59;;;;;;;14.95;13.35;;;3.70;99.90;;;;;;6000950;23;20275;-68
2022/12/03 00:49:26;;;;;;;14.27;12.65;;;3.80;99.90;;;;;;6009863;23;20209;-68
2022/12/03 00:51:53;;;;;;;15.77;14.13;;;3.80;99.90;;;;;;6003059;23;20206;-69
2022/12/03 00:54:22;;;;;;;15.38;13.50;;;3.90;99.90;;;;;;5995660;23;20261;-69
2022/12/03 00:56:50;;;;;;;14.25;12.65;;;3.90;99.90;;;;;;6002902;23;20194;-68
2022/12/03 00:59:17;;;;;;;15.02;13.43;;;3.90;99.90;;;;;;5999368;23;20182;-68
2022/12/03 01:01:44;;;;;;;13.15;11.85;;;4.00;99.90;;;;;;5990002;23;20270;-68
2022/12/03 01:04:11;;;;;;;13.55;12.15;;;4.00;99.90;;;;;;5996133;23;20272;-69
2022/12/03 01:06:39;;;;;;;13.32;12.00;;;4.00;99.90;;;;;;6002014;23;20196;-68
2022/12/03 01:09:07;;;;;;;14.05;12.55;;;4.10;99.90;;;;;;5997424;23;20556;-69
2022/12/03 01:11:40;;;;;;;12.40;10.98;;;4.10;99.90;;;;;;6004265;23;20293;-68
2022/12/03 01:14:11;;;;;;;13.50;12.25;;;4.10;99.90;;;;;;5999542;23;20277;-68
2022/12/03 01:16:39;;;;;;;13.98;12.68;;;4.10;99.90;;;;;;6002825;23;20252;-68
2022/12/03 01:19:07;;;;;;;12.70;11.50;;;4.20;99.90;;;;;;6004293;23;20640;-68
2022/12/03 01:21:34;;;;;;;14.52;12.20;;;4.20;99.90;;;;;;6003195;23;20660;-69
2022/12/03 01:24:01;;;;;;;12.93;11.68;;;4.20;99.90;;;;;;6002200;23;20648;-69
2022/12/03 01:26:29;;;;;;;12.63;11.43;;;4.20;99.90;;;;;;5991923;23;20239;-69
2022/12/03 01:28:57;;;;;;;13.13;11.80;;;4.20;99.90;;;;;;5976937;24;20324;-69
2022/12/03 01:34:10;;;;;;;12.93;11.63;;;4.20;99.90;;;;;;5997923;23;20639;-68
2022/12/03 01:36:37;;;;;;;12.85;11.52;;;4.30;99.90;;;;;;5990575;23;20281;-69
2022/12/03 01:39:04;;;;;;;12.07;10.88;;;4.30;99.90;;;;;;5990875;23;20656;-68
2022/12/03 01:41:32;;;;;;;13.55;12.25;;;4.30;99.90;;;;;;5994589;23;20269;-69
2022/12/03 01:44:01;;;;;;;13.32;11.93;;;4.30;99.90;;;;;;5988764;23;20199;-69
2022/12/03 01:46:37;;;;;;;12.98;11.68;;;4.30;99.90;;;;;;5982680;23;20195;-69
2022/12/03 01:49:05;;;;;;;13.77;12.38;;;4.30;99.90;;;;;;5996644;23;20206;-68
2022/12/03 01:51:32;;;;;;;13.02;11.65;;;4.30;99.90;;;;;;6002479;23;20659;-69
2022/12/03 01:54:02;;;;;;;13.77;12.38;;;4.30;99.90;;;;;;6003413;23;20194;-68
2022/12/03 01:56:29;;;;;;;13.45;12.05;;;4.30;99.90;;;;;;5993504;23;20198;-69
2022/12/03 01:58:56;;;;;;;13.32;11.60;;;4.30;99.90;;;;;;5977177;24;20210;-68
2022/12/03 02:01:23;;;;;;;14.80;13.20;;;4.30;99.90;;;;;;5990851;23;20194;-68
2022/12/03 02:03:51;;;;;;;14.95;13.45;;;4.30;99.90;;;;;;5999158;23;20277;-68
2022/12/03 02:06:21;;;;;;;13.70;12.30;;;4.30;99.90;;;;;;5997437;23;20202;-68
2022/12/03 02:08:49;;;;;;;14.48;12.48;;;4.30;99.90;;;;;;6002662;23;20213;-69
2022/12/03 02:11:20;;;;;;;14.63;12.77;;;4.20;99.90;;;;;;6002661;23;20607;-68
2022/12/03 02:13:49;;;;;;;13.90;12.55;;;4.10;99.90;;;;;;6004802;23;20556;-68
2022/12/03 02:16:17;;;;;;;15.10;13.10;;;4.10;99.90;;;;;;6003745;23;20288;-68
2022/12/03 02:18:44;;;;;;;15.57;13.15;;;4.10;99.90;;;;;;6004826;23;20186;-68
2022/12/03 02:21:18;;;;;;;14.43;12.93;;;4.10;99.90;;;;;;6000253;23;20201;-68
2022/12/03 02:23:53;;;;;;;15.35;13.25;;;4.10;99.90;;;;;;6005195;23;20285;-68
2022/12/03 02:26:21;;;;;;;14.20;12.27;;;4.10;99.90;;;;;;5988731;23;20244;-69
2022/12/03 02:28:48;;;;;;;15.02;13.38;;;4.10;99.90;;;;;;5996688;23;20313;-68
2022/12/03 02:31:15;;;;;;;16.38;14.00;;;4.20;99.90;;;;;;6000387;23;20301;-68
2022/12/03 02:33:43;;;;;;;15.40;13.75;;;4.10;99.90;;;;;;6002157;23;20194;-68
2022/12/03 02:36:11;;;;;;;15.85;13.68;;;4.20;99.90;;;;;;6000972;23;20252;-68
2022/12/03 02:38:39;;;;;;;15.57;13.60;;;4.10;99.90;;;;;;5993397;23;20398;-69
2022/12/03 02:41:10;;;;;;;15.48;13.98;;;4.20;99.90;;;;;;5991668;23;20277;-68
2022/12/03 02:43:37;;;;;;;15.32;13.10;;;4.20;99.90;;;;;;5976988;24;20241;-69
2022/12/03 02:46:07;;;;;;;15.27;13.27;;;4.20;99.90;;;;;;5990421;23;20196;-69
2022/12/03 02:48:37;;;;;;;16.67;14.68;;;4.20;99.90;;;;;;6000251;23;20221;-69
2022/12/03 02:51:06;;;;;;;18.05;14.52;;;4.20;99.90;;;;;;6002596;23;20296;-69
2022/12/03 02:53:37;;;;;;;16.65;14.10;;;4.20;99.90;;;;;;6002942;23;20566;-68
2022/12/03 02:56:06;;;;;;;15.13;13.40;;;4.20;99.90;;;;;;6001169;23;20213;-69
2022/12/03 02:58:35;;;;;;;15.50;13.75;;;4.20;99.90;;;;;;6004589;23;20197;-68
2022/12/03 03:01:05;;;;;;;16.02;14.32;;;4.10;99.90;;;;;;6002219;23;20190;-68
2022/12/03 03:03:32;;;;;;;18.45;14.60;;;4.10;99.90;;;;;;6000117;23;20194;-68
2022/12/03 03:06:02;;;;;;;15.90;13.75;;;4.20;99.90;;;;;;6001828;23;20186;-69
2022/12/03 03:08:29;;;;;;;16.48;14.35;;;4.20;99.90;;;;;;6004595;23;20367;-69
2022/12/03 03:10:59;;;;;;;17.73;15.10;;;4.10;99.90;;;;;;5993368;23;20210;-69
2022/12/03 03:13:26;;;;;;;19.08;15.68;;;4.10;99.90;;;;;;6001733;23;20286;-68
2022/12/03 03:15:54;;;;;;;16.88;14.70;;;4.10;99.90;;;;;;6003881;23;20200;-68
2022/12/03 03:18:23;;;;;;;16.80;14.70;;;4.10;99.90;;;;;;5997076;23;20552;-69
2022/12/03 03:20:51;;;;;;;18.30;15.35;;;4.10;99.90;;;;;;5999030;23;20273;-69
2022/12/03 03:23:20;;;;;;;18.30;14.35;;;4.20;99.90;;;;;;5995667;23;20587;-68
2022/12/03 03:25:53;;;;;;;18.30;14.50;;;4.20;99.90;;;;;;5994770;23;20214;-69
2022/12/03 03:28:21;;;;;;;18.75;15.38;;;4.20;99.90;;;;;;5994413;23;20664;-68
2022/12/03 03:30:50;;;;;;;19.13;15.52;;;4.20;99.90;;;;;;6002630;23;20210;-68
2022/12/03 03:33:17;;;;;;;17.92;14.60;;;4.20;99.90;;;;;;6000679;23;20635;-68
2022/12/03 03:35:48;;;;;;;18.48;14.45;;;4.20;99.90;;;;;;5992706;23;20214;-69
2022/12/03 03:38:16;;;;;;;15.90;13.85;;;4.20;99.90;;;;;;6003836;23;20281;-69
2022/12/03 03:40:44;;;;;;;20.15;14.57;;;4.20;99.90;;;;;;5996302;23;20269;-68
2022/12/03 03:43:12;;;;;;;18.27;14.38;;;4.20;99.90;;;;;;6003675;23;20640;-68
2022/12/03 03:45:39;;;;;;;19.77;15.63;;;4.20;99.90;;;;;;5983239;23;20194;-68
2022/12/03 03:48:06;;;;;;;18.08;15.48;;;4.20;99.90;;;;;;5995294;23;20268;-68
2022/12/03 03:50:34;;;;;;;18.80;14.50;;;4.20;99.90;;;;;;5993496;23;20293;-69
2022/12/03 03:53:04;;;;;;;18.60;14.95;;;4.20;99.90;;;;;;6002776;23;20261;-68
2022/12/03 03:55:31;;;;;;;18.48;14.65;;;4.20;99.90;;;;;;6002448;23;20434;-68
2022/12/03 03:57:59;;;;;;;19.33;15.38;;;4.30;99.90;;;;;;5993413;23;20313;-69
2022/12/03 04:00:26;;;;;;;18.90;15.23;;;4.30;99.90;;;;;;5981898;23;20245;-69
2022/12/03 04:02:54;;;;;;;19.00;15.00;;;4.30;99.90;;;;;;6003463;23;20240;-69
2022/12/03 04:05:23;;;;;;;18.42;15.00;;;4.30;99.90;;;;;;6000465;23;20194;-69
2022/12/03 04:07:50;;;;;;;18.98;14.98;;;4.30;99.90;;;;;;5999415;23;20194;-69
2022/12/03 04:13:01;;;;;;;15.98;13.60;;;4.40;99.90;;;;;;5967434;23;20268;-69
2022/12/03 04:15:28;;;;;;;16.85;14.18;;;4.30;99.90;;;;;;6002330;23;20272;-68
2022/12/03 04:20:40;;;;;;;18.00;15.70;;;4.30;99.90;;;;;;5996825;23;20266;-68
2022/12/03 04:23:06;;;;;;;20.77;14.25;;;4.30;99.90;;;;;;6002763;23;20217;-68
2022/12/03 04:35:41;;;;;;;15.48;13.27;;;4.40;99.90;;;;;;6005784;23;20229;-69
2022/12/03 04:36:37;;;;;;;21.52;16.17;;;4.40;99.90;;;;;;5999868;23;20185;-68
2022/12/03 04:39:04;;;;;;;17.48;14.25;;;4.40;99.90;;;;;;6002453;23;20222;-68
2022/12/03 04:41:33;;;;;;;16.20;13.70;;;4.30;99.90;;;;;;6001259;23;20190;-69
2022/12/03 04:46:44;;;;;;;17.13;14.50;;;4.40;99.90;;;;;;6004051;23;20509;-68
2022/12/03 04:49:11;;;;;;;17.48;14.05;;;4.40;99.90;;;;;;6004543;23;20600;-69
2022/12/03 04:51:39;;;;;;;16.75;14.10;;;4.40;99.90;;;;;;5999093;23;20237;-68
2022/12/03 04:54:06;;;;;;;17.70;14.95;;;4.40;99.90;;;;;;6003572;23;20194;-68
2022/12/03 04:56:34;;;;;;;18.52;15.10;;;4.40;99.90;;;;;;5998921;23;20274;-69
2022/12/03 04:59:02;;;;;;;18.98;15.38;;;4.40;99.90;;;;;;5995066;23;20247;-69
2022/12/03 05:01:29;;;;;;;18.75;15.30;;;4.40;99.90;;;;;;6003952;23;20277;-68
2022/12/03 05:03:56;;;;;;;18.48;14.82;;;4.40;99.90;;;;;;6003886;23;20616;-68
2022/12/03 05:06:23;;;;;;;20.20;15.50;;;4.40;99.90;;;;;;5997118;23;20598;-69
2022/12/03 05:08:50;;;;;;;16.92;14.25;;;4.40;99.90;;;;;;6000283;23;20196;-68
2022/12/03 05:11:17;;;;;;;20.30;16.10;;;4.40;99.90;;;;;;5999739;23;20226;-68
2022/12/03 05:13:45;;;;;;;21.83;16.25;;;4.50;99.90;;;;;;6003910;23;20268;-68
2022/12/03 05:16:12;;;;;;;17.13;14.63;;;4.50;99.90;;;;;;5997137;23;20191;-68
2022/12/03 05:18:39;;;;;;;18.73;15.23;;;4.50;99.90;;;;;;5999763;23;20194;-68
2022/12/03 05:21:05;;;;;;;18.90;14.82;;;4.50;99.90;;;;;;5990328;23;20266;-68
2022/12/03 05:23:33;;;;;;;20.98;15.15;;;4.50;99.90;;;;;;5993692;23;20196;-68
2022/12/03 05:26:00;;;;;;;18.40;15.27;;;4.50;99.90;;;;;;5998924;23;20221;-68
2022/12/03 05:28:27;;;;;;;19.17;15.65;;;4.50;99.90;;;;;;6003783;23;20560;-69
2022/12/03 05:30:56;;;;;;;17.63;14.07;;;4.50;99.90;;;;;;5988303;23;20302;-68
2022/12/03 05:33:23;;;;;;;18.33;15.13;;;4.50;99.90;;;;;;5985598;23;20190;-68
2022/12/03 05:35:50;;;;;;;21.20;16.67;;;4.50;99.90;;;;;;6002541;23;20198;-68
2022/12/03 05:38:17;;;;;;;20.90;17.02;;;4.50;99.90;;;;;;5992871;23;20268;-68
2022/12/03 05:40:44;;;;;;;21.00;16.30;;;4.50;99.90;;;;;;5996129;23;20217;-68
2022/12/03 05:43:10;;;;;;;21.83;18.05;;;4.40;99.90;;;;;;5986793;23;20273;-68
2022/12/03 05:45:39;;;;;;;24.08;17.75;;;4.40;99.90;;;;;;6003819;23;20198;-68
2022/12/03 05:48:10;;;;;;;20.92;16.38;;;4.40;99.90;;;;;;5993650;23;20269;-68
2022/12/03 05:50:39;;;;;;;23.10;17.42;;;4.40;99.90;;;;;;6002717;23;20706;-68
2022/12/03 05:53:06;;;;;;;25.23;17.52;;;4.40;99.90;;;;;;6002067;23;20278;-68
2022/12/03 05:55:35;;;;;;;23.30;17.38;;;4.40;99.90;;;;;;6004692;23;20530;-68
2022/12/03 05:58:03;;;;;;;21.13;16.45;;;4.40;99.90;;;;;;5991142;23;20239;-69
2022/12/03 06:00:36;;;;;;;20.60;16.77;;;4.30;99.90;;;;;;6004954;23;20182;-68
2022/12/03 06:03:04;;;;;;;20.55;16.20;;;4.30;99.90;;;;;;6002817;23;20240;-68
2022/12/03 06:05:33;;;;;;;19.88;16.45;;;4.30;99.90;;;;;;6003805;23;20288;-69
2022/12/03 06:08:01;;;;;;;24.42;17.63;;;4.30;99.90;;;;;;6001764;23;20218;-68
2022/12/03 06:10:29;;;;;;;23.92;17.60;;;4.40;99.90;;;;;;5992752;23;20224;-68
2022/12/03 06:12:56;;;;;;;23.05;16.23;;;4.30;99.90;;;;;;5994833;23;20252;-69
2022/12/03 06:15:23;;;;;;;24.17;16.52;;;4.40;99.90;;;;;;6004991;23;20201;-69
2022/12/03 06:17:51;;;;;;;25.08;17.15;;;4.30;99.90;;;;;;6000286;23;20261;-68
2022/12/03 06:20:20;;;;;;;24.38;17.13;;;4.40;99.90;;;;;;6003455;23;20573;-68
2022/12/03 06:22:48;;;;;;;20.85;16.27;;;4.30;99.90;;;;;;6002961;23;20299;-69
2022/12/03 06:25:16;;;;;;;22.92;17.45;;;4.30;99.90;;;;;;6002296;23;20206;-69
2022/12/03 06:27:43;;;;;;;25.52;16.95;;;4.40;99.90;;;;;;5999768;23;20194;-68
2022/12/03 06:30:13;;;;;;;22.30;16.77;;;4.30;99.90;;;;;;6004736;23;20260;-68
2022/12/03 06:32:41;;;;;;;24.02;18.25;;;4.30;99.90;;;;;;5989994;23;20194;-68
2022/12/03 06:35:09;;;;;;;25.08;18.35;;;4.30;99.90;;;;;;5988229;23;20277;-69
2022/12/03 06:37:36;;;;;;;23.23;18.67;;;4.30;99.90;;;;;;6013424;23;20209;-68
2022/12/03 06:40:05;;;;;;;24.92;18.35;;;4.30;99.90;;;;;;6003320;23;20187;-68
2022/12/03 06:42:32;;;;;;;24.83;17.17;;;4.30;99.90;;;;;;5999430;23;20730;-68
2022/12/03 06:45:00;;;;;;;25.90;17.65;;;4.30;99.90;;;;;;6003615;23;20609;-68
2022/12/03 06:47:28;;;;;;;28.33;20.13;;;4.30;99.90;;;;;;6003849;23;20212;-68
2022/12/03 06:49:54;;;;;;;25.27;17.27;;;4.30;99.90;;;;;;6001538;23;20245;-68
2022/12/03 06:52:21;;;;;;;26.33;18.40;;;4.30;99.90;;;;;;5996069;23;20277;-68
2022/12/03 06:54:50;;;;;;;27.92;19.83;;;4.30;99.90;;;;;;6003696;23;20217;-68
2022/12/03 06:57:18;;;;;;;25.30;19.13;;;4.30;99.90;;;;;;5997461;23;20265;-68
2022/12/03 06:59:45;;;;;;;29.80;21.27;;;4.30;99.90;;;;;;6001664;23;20193;-68
2022/12/03 07:02:12;;;;;;;27.95;21.42;;;4.20;99.90;;;;;;6004467;23;20282;-68
2022/12/03 07:04:39;;;;;;;30.55;20.75;;;4.20;99.90;;;;;;6002071;23;20217;-68
2022/12/03 07:07:06;;;;;;;33.78;21.17;;;4.20;99.90;;;;;;6008467;23;20286;-68
2022/12/03 07:09:33;;;;;;;36.10;22.15;;;4.20;99.90;;;;;;6003037;23;20189;-69
2022/12/03 07:12:00;;;;;;;29.92;20.38;;;4.10;99.90;;;;;;6003032;23;20297;-68
2022/12/03 07:14:29;;;;;;;34.38;22.17;;;4.00;99.90;;;;;;5998372;23;20277;-69
2022/12/03 07:16:56;;;;;;;28.48;20.45;;;4.10;99.90;;;;;;5994640;23;20691;-69
2022/12/03 07:19:23;;;;;;;30.45;19.77;;;4.10;99.90;;;;;;5994354;23;20715;-69
2022/12/03 07:21:50;;;;;;;29.95;21.10;;;4.10;99.90;;;;;;6002047;23;20182;-70
2022/12/03 07:24:17;;;;;;;29.00;20.85;;;4.20;99.90;;;;;;6004552;23;20242;-69
2022/12/03 07:26:45;;;;;;;33.33;21.63;;;4.20;99.90;;;;;;6002127;23;20281;-69
2022/12/03 07:29:12;;;;;;;29.80;20.95;;;4.30;99.90;;;;;;6004495;23;20212;-70
2022/12/03 07:31:41;;;;;;;28.33;19.75;;;4.30;99.90;;;;;;5986791;23;20651;-69
2022/12/03 07:34:08;;;;;;;32.45;21.73;;;4.30;99.90;;;;;;5987736;23;20210;-69
2022/12/03 07:36:35;;;;;;;35.03;21.83;;;4.30;99.90;;;;;;5984656;23;20209;-69
2022/12/03 07:39:02;;;;;;;31.35;20.38;;;4.30;99.90;;;;;;5992296;23;20193;-68
2022/12/03 07:41:30;;;;;;;34.30;21.40;;;4.20;99.90;;;;;;5997250;23;20213;-68
2022/12/03 07:43:58;;;;;;;31.70;21.63;;;4.20;99.90;;;;;;5996387;23;20203;-69
2022/12/03 07:46:26;;;;;;;31.92;22.58;;;4.10;99.90;;;;;;5982924;23;20699;-68
2022/12/03 07:48:54;;;;;;;34.28;20.58;;;4.10;99.90;;;;;;5975421;23;20695;-68
2022/12/03 07:51:22;;;;;;;33.30;21.08;;;4.10;99.90;;;;;;5993929;23;20234;-68
2022/12/03 07:53:49;;;;;;;32.75;21.15;;;4.10;99.90;;;;;;6001493;23;20194;-69
2022/12/03 07:56:16;;;;;;;31.95;21.00;;;4.10;99.90;;;;;;6000670;23;20202;-68
2022/12/03 07:58:43;;;;;;;35.92;22.17;;;4.10;99.90;;;;;;6005728;23;20344;-68
2022/12/03 08:01:11;;;;;;;34.17;21.45;;;4.10;99.90;;;;;;6003697;23;20605;-68
2022/12/03 08:03:38;;;;;;;30.50;21.80;;;4.10;99.90;;;;;;6004186;23;20225;-69
2022/12/03 08:06:07;;;;;;;27.83;19.95;;;4.20;99.90;;;;;;6001727;23;20686;-70
2022/12/03 08:08:34;;;;;;;23.42;17.67;;;4.50;99.90;;;;;;6004253;23;20190;-70
2022/12/03 08:11:01;;;;;;;25.05;18.50;;;5.10;99.90;;;;;;5992700;23;20206;-69
2022/12/03 08:13:29;;;;;;;21.15;15.95;;;5.50;99.90;;;;;;5995709;23;20186;-69
2022/12/03 08:16:01;;;;;;;21.65;15.88;;;6.20;99.90;;;;;;5960200;23;20189;-71
2022/12/03 08:18:28;;;;;;;27.70;19.70;;;6.50;99.90;;;;;;5979259;23;20222;-69
2022/12/03 08:20:56;;;;;;;25.25;18.92;;;6.40;99.90;;;;;;5991206;23;20242;-69
2022/12/03 08:23:26;;;;;;;26.38;19.98;;;6.20;99.90;;;;;;5994630;23;20273;-69
2022/12/03 08:25:53;;;;;;;25.48;19.05;;;6.10;99.90;;;;;;5993131;23;20205;-69
2022/12/03 08:28:24;;;;;;;28.35;19.40;;;5.80;99.90;;;;;;6003469;23;20186;-69
2022/12/03 08:31:00;;;;;;;29.45;19.70;;;5.50;99.90;;;;;;5993944;23;20329;-69
2022/12/03 08:33:32;;;;;;;27.80;18.85;;;5.30;99.90;;;;;;6004803;23;20198;-68
2022/12/03 08:36:07;;;;;;;32.40;21.52;;;5.20;99.90;;;;;;6003326;23;20186;-69
2022/12/03 08:38:37;;;;;;;27.02;19.60;;;5.00;99.90;;;;;;6000939;23;20299;-69
2022/12/03 08:41:12;;;;;;;27.27;19.05;;;4.90;99.90;;;;;;5991680;23;20190;-69
2022/12/03 08:43:41;;;;;;;28.33;18.63;;;4.80;99.90;;;;;;5986855;23;20565;-70
2022/12/03 08:46:14;;;;;;;29.90;20.55;;;4.80;99.90;;;;;;6005107;23;20213;-73
2022/12/03 08:48:41;;;;;;;29.45;20.77;;;4.70;99.90;;;;;;6003721;23;20710;-72
2022/12/03 08:51:15;;;;;;;33.80;20.75;;;4.60;99.90;;;;;;5980171;23;20285;-73
2022/12/03 08:53:47;;;;;;;33.65;20.73;;;4.40;99.90;;;;;;5983368;23;20186;-72
2022/12/03 08:56:21;;;;;;;29.73;21.17;;;4.40;99.90;;;;;;6002324;23;20224;-69
2022/12/03 08:58:52;;;;;;;33.75;22.90;;;4.30;99.90;;;;;;6000443;23;20244;-69
2022/12/03 09:01:40;;;;;;;29.20;20.85;;;4.30;99.90;;;;;;5995318;23;20199;-69
2022/12/03 09:04:25;;;;;;;32.08;20.40;;;4.30;99.90;;;;;;6002242;23;20232;-69
2022/12/03 09:06:55;;;;;;;28.75;20.00;;;4.30;99.90;;;;;;5981891;23;20325;-73
2022/12/03 09:09:24;;;;;;;29.17;20.73;;;4.30;99.90;;;;;;6003785;23;20260;-69
2022/12/03 09:11:52;;;;;;;29.85;21.48;;;4.40;99.90;;;;;;5973782;23;20237;-69
2022/12/03 09:14:21;;;;;;;29.40;19.77;;;4.40;99.90;;;;;;5993852;23;20574;-69
2022/12/03 09:16:50;;;;;;;26.80;19.85;;;4.40;99.90;;;;;;5985917;23;20202;-67
2022/12/03 09:19:17;;;;;;;26.98;19.65;;;4.30;99.90;;;;;;5985282;23;20347;-71
2022/12/03 09:21:46;;;;;;;25.98;19.25;;;4.30;99.90;;;;;;5979234;23;20195;-69
2022/12/03 09:24:13;;;;;;;27.92;21.13;;;4.20;99.90;;;;;;6003717;23;20265;-69
2022/12/03 09:26:42;;;;;;;26.55;20.00;;;4.20;99.90;;;;;;6001245;23;20277;-69
2022/12/03 09:29:09;;;;;;;28.05;21.08;;;4.20;99.90;;;;;;5990095;23;20652;-69
2022/12/03 09:31:37;;;;;;;27.98;19.95;;;4.10;99.90;;;;;;5997037;23;20335;-69
2022/12/03 09:34:05;;;;;;;26.35;20.60;;;4.10;99.90;;;;;;5984611;23;20199;-69
2022/12/03 09:36:34;;;;;;;26.73;19.88;;;4.10;99.90;;;;;;5992490;23;20575;-68
2022/12/03 09:39:01;;;;;;;22.40;18.30;;;4.10;99.90;;;;;;5992844;23;20651;-69
2022/12/03 09:41:28;;;;;;;23.70;17.80;;;4.10;99.90;;;;;;6000996;23;20197;-69
2022/12/03 09:43:57;;;;;;;22.42;16.52;;;4.00;99.90;;;;;;6002988;23;20300;-73
2022/12/03 09:46:24;;;;;;;26.48;18.42;;;4.00;99.90;;;;;;5950001;23;20252;-69
2022/12/03 09:48:51;;;;;;;24.08;18.25;;;3.90;99.90;;;;;;6003477;23;20214;-69
2022/12/03 09:51:19;;;;;;;24.85;19.08;;;3.90;99.90;;;;;;5987442;23;20244;-69
2022/12/03 09:53:47;;;;;;;24.63;18.58;;;3.90;99.90;;;;;;5997590;23;20262;-69
2022/12/03 09:56:20;;;;;;;23.90;17.38;;;3.90;99.90;;;;;;5994109;23;20550;-69
2022/12/03 09:58:48;;;;;;;24.08;18.42;;;3.90;99.90;;;;;;5997202;23;20197;-69
2022/12/03 10:01:18;;;;;;;26.55;18.30;;;3.90;99.90;;;;;;6003278;23;20266;-69
2022/12/03 10:03:48;;;;;;;23.17;18.13;;;3.90;99.90;;;;;;6001821;23;20223;-69
2022/12/03 10:06:18;;;;;;;24.35;17.50;;;3.90;99.90;;;;;;5993614;23;20251;-69
2022/12/03 10:08:48;;;;;;;22.02;16.95;;;3.90;99.90;;;;;;5982076;23;20196;-68
2022/12/03 10:11:17;;;;;;;22.58;17.40;;;3.90;99.90;;;;;;5995365;23;20324;-68
2022/12/03 10:13:44;;;;;;;23.48;16.98;;;3.90;99.90;;;;;;5995068;23;20655;-68
2022/12/03 10:16:15;;;;;;;23.63;17.08;;;4.00;99.90;;;;;;5983812;23;20196;-69
2022/12/03 10:18:47;;;;;;;21.42;16.27;;;4.00;99.90;;;;;;5994091;23;20193;-69
2022/12/03 10:21:19;;;;;;;20.38;15.48;;;4.00;99.90;;;;;;5995079;23;20194;-69
2022/12/03 10:24:22;;;;;;;21.38;17.13;;;4.00;99.90;;;;;;5960014;23;20352;-68
2022/12/03 10:26:51;;;;;;;19.05;15.88;;;4.00;99.90;;;;;;5999970;23;20288;-69
2022/12/03 10:29:20;;;;;;;19.73;15.90;;;3.90;99.90;;;;;;5997149;23;20190;-69
2022/12/03 10:31:56;;;;;;;20.35;16.10;;;3.90;99.90;;;;;;6001617;23;20258;-69
2022/12/03 10:34:29;;;;;;;21.05;16.95;;;3.90;99.90;;;;;;5999410;23;20313;-69
2022/12/03 10:37:16;;;;;;;19.80;15.52;;;3.90;99.90;;;;;;6003177;23;20229;-68
2022/12/03 10:39:55;;;;;;;20.48;15.93;;;3.90;99.90;;;;;;6012221;23;20576;-69
2022/12/03 10:42:23;;;;;;;19.25;14.73;;;3.90;99.90;;;;;;5992613;23;20668;-68
2022/12/03 10:45:06;;;;;;;19.05;15.45;;;3.80;99.90;;;;;;6003854;23;20272;-68
2022/12/03 10:47:33;;;;;;;19.48;14.75;;;3.70;99.90;;;;;;5984765;23;20197;-68
2022/12/03 10:50:05;;;;;;;18.95;14.63;;;3.80;99.90;;;;;;6002743;23;20265;-69
2022/12/03 10:52:32;;;;;;;19.10;15.55;;;3.80;99.90;;;;;;5988995;23;20688;-69
2022/12/03 10:54:59;;;;;;;20.77;16.83;;;3.90;99.90;;;;;;5990933;23;20194;-69
2022/12/03 10:57:27;;;;;;;18.88;16.35;;;3.90;99.90;;;;;;6001253;23;20664;-68
2022/12/03 10:59:54;;;;;;;18.75;14.98;;;3.90;99.90;;;;;;6003552;23;20228;-69
2022/12/03 11:02:24;;;;;;;20.48;16.08;;;3.90;99.90;;;;;;6003709;23;20188;-69
2022/12/03 11:04:52;;;;;;;22.45;17.40;;;3.80;99.90;;;;;;6003632;23;20331;-69
2022/12/03 11:07:23;;;;;;;23.38;17.17;;;3.80;99.90;;;;;;5999574;23;20269;-69
2022/12/03 11:09:53;;;;;;;21.95;16.15;;;3.80;99.90;;;;;;6002259;23;20201;-68
2022/12/03 11:12:23;;;;;;;17.83;14.95;;;3.80;99.90;;;;;;5984950;23;20399;-69
2022/12/03 11:15:06;;;;;;;20.90;15.75;;;3.80;99.90;;;;;;6003619;23;20288;-69
2022/12/03 11:17:42;;;;;;;19.60;16.05;;;3.80;99.90;;;;;;6001177;23;20240;-69
2022/12/03 11:20:12;;;;;;;19.88;15.60;;;3.70;99.90;;;;;;6001472;23;20274;-69
2022/12/03 11:22:43;;;;;;;22.10;16.30;;;3.70;99.90;;;;;;5975725;23;20193;-69
2022/12/03 11:25:46;;;;;;;19.48;15.15;;;3.70;99.90;;;;;;5983910;23;20201;-69
2022/12/03 11:28:33;;;;;;;21.75;16.17;;;3.70;99.90;;;;;;5997565;23;20217;-69
2022/12/03 11:31:07;;;;;;;19.73;15.55;;;3.70;99.90;;;;;;6000868;23;20729;-69
2022/12/03 11:33:36;;;;;;;19.55;15.15;;;3.70;99.90;;;;;;5995430;23;20283;-69
2022/12/03 11:36:18;;;;;;;18.42;14.25;;;3.70;99.90;;;;;;6004991;23;20201;-68
2022/12/03 11:39:04;;;;;;;18.40;13.70;;;3.60;99.90;;;;;;6002695;23;20225;-69
2022/12/03 11:41:33;;;;;;;17.58;13.52;;;3.70;99.90;;;;;;6004377;23;20224;-69
2022/12/03 11:44:20;;;;;;;18.42;13.80;;;3.60;99.90;;;;;;6000030;23;20190;-69
2022/12/03 11:46:48;;;;;;;19.20;15.15;;;3.60;99.90;;;;;;5993024;23;20290;-69
2022/12/03 11:49:31;;;;;;;19.60;15.27;;;3.50;99.90;;;;;;6000753;23;20296;-69
2022/12/03 11:52:00;;;;;;;19.80;15.07;;;3.50;99.90;;;;;;6003330;23;20219;-69
2022/12/03 11:54:34;;;;;;;20.25;14.73;;;3.50;99.90;;;;;;5998509;23;20219;-69
2022/12/03 11:57:02;;;;;;;18.58;14.00;;;3.50;99.90;;;;;;5984530;23;20197;-68
2022/12/03 11:59:29;;;;;;;17.40;12.77;;;3.50;99.90;;;;;;6002508;23;20303;-69
2022/12/03 12:01:57;;;;;;;16.10;12.10;;;3.50;99.90;;;;;;5998581;23;20192;-68
2022/12/03 12:04:32;;;;;;;15.45;12.13;;;3.50;99.90;;;;;;5999688;23;20292;-68
2022/12/03 12:07:00;;;;;;;16.88;14.00;;;3.60;99.90;;;;;;6002559;23;20194;-69
2022/12/03 12:09:52;;;;;;;18.65;13.55;;;3.60;99.90;;;;;;5996427;23;20197;-69
2022/12/03 12:12:29;;;;;;;16.40;13.55;;;3.70;99.90;;;;;;5976475;23;20292;-69
2022/12/03 12:14:57;;;;;;;18.40;13.20;;;3.70;99.90;;;;;;5993716;23;20271;-69
2022/12/03 12:17:34;;;;;;;16.45;12.82;;;3.60;99.90;;;;;;6001932;23;20233;-70
2022/12/03 12:20:24;;;;;;;19.15;15.10;;;3.60;99.90;;;;;;6000382;23;20654;-70
2022/12/03 12:22:53;;;;;;;20.80;14.98;;;3.60;99.90;;;;;;6004610;23;20642;-70
2022/12/03 12:25:39;;;;;;;18.33;13.55;;;3.60;99.90;;;;;;6004044;23;20209;-70
2022/12/03 12:28:07;;;;;;;16.92;12.55;;;3.40;99.90;;;;;;6002311;23;20691;-70
2022/12/03 12:30:35;;;;;;;17.65;12.30;;;3.40;99.90;;;;;;6003229;23;20280;-70
2022/12/03 12:33:11;;;;;;;18.73;13.75;;;3.40;99.90;;;;;;5996572;23;20217;-69
2022/12/03 12:35:38;;;;;;;21.23;13.77;;;3.30;99.90;;;;;;6004407;23;20284;-70
2022/12/03 12:38:15;;;;;;;19.35;13.75;;;3.30;99.90;;;;;;5999612;23;20524;-70
2022/12/03 12:40:48;;;;;;;18.40;12.30;;;3.40;99.90;;;;;;5983910;23;20287;-70
2022/12/03 12:43:22;;;;;;;18.27;13.70;;;3.70;99.90;;;;;;5993331;23;20660;-70
2022/12/03 12:45:51;;;;;;;18.55;13.73;;;4.00;99.90;;;;;;6002931;23;20539;-70
2022/12/03 12:48:23;;;;;;;17.65;12.63;;;4.00;99.90;;;;;;5996834;23;20280;-70
2022/12/03 12:51:08;;;;;;;18.27;13.65;;;4.10;99.90;;;;;;5995259;23;20201;-69
2022/12/03 12:53:38;;;;;;;18.20;12.45;;;4.10;99.90;;;;;;5986749;23;20671;-69
2022/12/03 12:56:16;;;;;;;21.60;15.20;;;4.00;99.90;;;;;;6004222;23;20276;-69
2022/12/03 12:58:43;;;;;;;19.67;13.88;;;3.80;99.90;;;;;;6001055;23;20201;-69
2022/12/03 13:01:24;;;;;;;21.70;14.13;;;3.70;99.90;;;;;;5987208;23;20209;-69
2022/12/03 13:03:52;;;;;;;19.38;14.05;;;3.60;99.90;;;;;;5990960;23;20230;-69
2022/12/03 13:06:25;;;;;;;21.77;14.63;;;3.60;99.90;;;;;;5990553;23;20197;-69